Terminal Aerodrome Forecast
Issued by NWS

Home | Current Version | Previous Version | Text Only | Print | Product List | Glossary On
Versions: 1 2 3 4 5 6 7 8 9 10 11 12 13 14 15
167
FTAK31 PAJN 171124
TAFAGY
TAF
PAGY 171124Z 1712/1812 21014KT P6SM VCSH SCT015 OVC035
     FM172100 21013G20KT P6SM VCSH OVC040
     FM180400 21010KT P6SM -SHRA OVC040
     FM181000 02010KT P6SM -SHRA OVC040
      AMD LTD TO CLD VIS AND WIND=

USA.gov is the U.S. government's official web portal to all federal, state and local government web resources and services.